CPY5 weather

Wilson's Heliport
Toronto, Ontario, Canada

Public forecast

Using degrees Celsius for public forecast. Weather courtesy of forecast.io.

Closest aviation weather report (METAR) to Wilson's Heliport

Closest report is Lester B. Pearson International Airport, 4.6 nm (8.5 km) NW. Retrieved 2020/07/09 13:00 UTC (42 minutes ago):

CYYZ 091300Z 11004KT 050V170 15SM FEW260 28/19 A2994 RMK CI1 SLP137 DENSITY ALT 2200FT

Closest aviation forecast (TAF) to Wilson's Heliport

Closest forecast is Lester B. Pearson International Airport, 4.6 nm (8.5 km) NW. Retrieved 2020/07/09 12:39 UTC (1 hour ago):

TAF CYYZ 091138Z 0912/1018 34005KT P6SM FEW240 BECMG 0913/0915 17008G18KT FM091500 17008G18KT P6SM SCT060 TEMPO 0918/0923 P6SM VCTS SCT060CB FM100100 VRB03KT P6SM FEW060 FM101200 15013KT P6SM BKN080 RMK NXT FCST BY 091500Z